Gold Point, Nevada
Current Conditions -  °F | °C
As of 9:56 AM on Saturday 20 Dec 2014 (Local Time) from KTPH Reporting Station
Overcast Overcast  
Wind Chill: 34°   Ceiling: 9000
Heat Index: 34°   Visibility: 10mi
Dew Point: 29°   Wind: 0mph
Humidity: 82%   Direction: NA
Pressure: 30.17"   Gusts: NA
Location:  37.7558°N, 117.435°W
Report Text: KTPH 201756Z AUTO 00000KT 10SM BKN090 OVC110 01/M02 A3017 RMK AO2 SLP229 T00111017 10017 21017 53004
Loading
Personal Weather Stations






























Interactive Weather Map New forecast layout! Learn more

10-Day Weather Forecast

Advertisements
Track Severe Weather on mobile